sensor_id;sensor_type;location;lat;lon;timestamp;P1;durP1;ratioP1;P2;durP2;ratioP2
11078;SDS011;5592;49.234;7.268;2023-04-01T00:00:53;4.90;;;1.10;;
11078;SDS011;5592;49.234;7.268;2023-04-01T00:03:20;3.70;;;1.53;;
11078;SDS011;5592;49.234;7.268;2023-04-01T00:05:45;3.63;;;1.10;;
11078;SDS011;5592;49.234;7.268;2023-04-01T00:08:11;2.67;;;1.00;;
11078;SDS011;5592;49.234;7.268;2023-04-01T00:10:37;3.30;;;1.03;;
11078;SDS011;5592;49.234;7.268;2023-04-01T00:13:03;2.47;;;1.07;;
11078;SDS011;5592;49.234;7.268;2023-04-01T00:15:29;4.60;;;1.27;;
11078;SDS011;5592;49.234;7.268;2023-04-01T00:17:55;8.13;;;2.33;;
11078;SDS011;5592;49.234;7.268;2023-04-01T00:20:21;4.73;;;1.13;;
11078;SDS011;5592;49.234;7.268;2023-04-01T00:22:46;7.23;;;1.50;;
11078;SDS011;5592;49.234;7.268;2023-04-01T00:25:12;3.60;;;0.93;;
11078;SDS011;5592;49.234;7.268;2023-04-01T00:27:37;4.60;;;1.53;;
11078;SDS011;5592;49.234;7.268;2023-04-01T00:30:03;4.83;;;1.17;;
11078;SDS011;5592;49.234;7.268;2023-04-01T00:32:29;3.07;;;1.20;;
11078;SDS011;5592;49.234;7.268;2023-04-01T00:34:56;1.90;;;0.90;;
11078;SDS011;5592;49.234;7.268;2023-04-01T00:37:23;7.50;;;1.47;;
11078;SDS011;5592;49.234;7.268;2023-04-01T00:39:49;4.30;;;1.30;;
11078;SDS011;5592;49.234;7.268;2023-04-01T00:42:15;3.13;;;1.27;;
11078;SDS011;5592;49.234;7.268;2023-04-01T00:44:40;7.37;;;1.50;;
11078;SDS011;5592;49.234;7.268;2023-04-01T00:47:07;6.80;;;1.33;;
11078;SDS011;5592;49.234;7.268;2023-04-01T00:49:34;6.80;;;1.57;;
11078;SDS011;5592;49.234;7.268;2023-04-01T00:52:04;6.30;;;1.43;;
11078;SDS011;5592;49.234;7.268;2023-04-01T00:54:32;4.20;;;1.30;;
11078;SDS011;5592;49.234;7.268;2023-04-01T00:57:00;5.80;;;1.50;;
11078;SDS011;5592;49.234;7.268;2023-04-01T00:59:34;5.60;;;1.50;;
11078;SDS011;5592;49.234;7.268;2023-04-01T01:02:04;3.97;;;1.20;;
11078;SDS011;5592;49.234;7.268;2023-04-01T01:04:32;3.47;;;1.30;;
11078;SDS011;5592;49.234;7.268;2023-04-01T01:12:19;4.70;;;1.60;;
11078;SDS011;5592;49.234;7.268;2023-04-01T01:23:06;6.03;;;1.27;;
11078;SDS011;5592;49.234;7.268;2023-04-01T01:31:25;5.07;;;1.70;;
11078;SDS011;5592;49.234;7.268;2023-04-01T01:36:50;10.60;;;1.70;;
11078;SDS011;5592;49.234;7.268;2023-04-01T01:39:21;8.10;;;2.27;;
11078;SDS011;5592;49.234;7.268;2023-04-01T01:41:52;6.70;;;1.77;;
11078;SDS011;5592;49.234;7.268;2023-04-01T01:44:20;12.27;;;2.17;;
11078;SDS011;5592;49.234;7.268;2023-04-01T01:46:48;5.60;;;1.47;;
11078;SDS011;5592;49.234;7.268;2023-04-01T01:49:14;4.63;;;1.40;;
11078;SDS011;5592;49.234;7.268;2023-04-01T01:51:42;9.90;;;1.90;;
11078;SDS011;5592;49.234;7.268;2023-04-01T01:54:11;5.07;;;1.70;;
11078;SDS011;5592;49.234;7.268;2023-04-01T01:56:38;3.63;;;1.60;;
11078;SDS011;5592;49.234;7.268;2023-04-01T01:59:07;4.33;;;1.17;;
11078;SDS011;5592;49.234;7.268;2023-04-01T02:01:35;7.03;;;1.33;;
11078;SDS011;5592;49.234;7.268;2023-04-01T02:04:06;11.40;;;1.50;;
11078;SDS011;5592;49.234;7.268;2023-04-01T02:06:34;4.30;;;1.80;;
11078;SDS011;5592;49.234;7.268;2023-04-01T02:09:05;7.03;;;1.37;;
11078;SDS011;5592;49.234;7.268;2023-04-01T02:14:25;5.00;;;1.67;;
11078;SDS011;5592;49.234;7.268;2023-04-01T02:16:58;4.37;;;1.33;;
11078;SDS011;5592;49.234;7.268;2023-04-01T02:19:29;6.43;;;1.50;;
11078;SDS011;5592;49.234;7.268;2023-04-01T02:22:00;9.50;;;1.40;;
11078;SDS011;5592;49.234;7.268;2023-04-01T02:24:29;4.57;;;1.20;;
11078;SDS011;5592;49.234;7.268;2023-04-01T02:26:56;11.63;;;2.17;;
11078;SDS011;5592;49.234;7.268;2023-04-01T02:29:23;5.97;;;1.80;;
11078;SDS011;5592;49.234;7.268;2023-04-01T02:31:53;6.40;;;1.40;;
11078;SDS011;5592;49.234;7.268;2023-04-01T02:34:20;8.00;;;1.93;;
11078;SDS011;5592;49.234;7.268;2023-04-01T02:36:48;10.87;;;2.43;;
11078;SDS011;5592;49.234;7.268;2023-04-01T02:39:15;9.10;;;1.93;;
11078;SDS011;5592;49.234;7.268;2023-04-01T02:41:42;3.97;;;1.37;;
11078;SDS011;5592;49.234;7.268;2023-04-01T02:44:09;8.47;;;1.53;;
11078;SDS011;5592;49.234;7.268;2023-04-01T02:46:37;7.50;;;1.90;;
11078;SDS011;5592;49.234;7.268;2023-04-01T02:49:02;14.10;;;2.00;;
11078;SDS011;5592;49.234;7.268;2023-04-01T02:51:28;12.40;;;1.47;;
11078;SDS011;5592;49.234;7.268;2023-04-01T02:53:53;6.50;;;1.30;;
11078;SDS011;5592;49.234;7.268;2023-04-01T02:56:19;8.30;;;1.47;;
11078;SDS011;5592;49.234;7.268;2023-04-01T02:58:45;9.40;;;1.77;;
11078;SDS011;5592;49.234;7.268;2023-04-01T03:01:11;6.83;;;1.10;;
11078;SDS011;5592;49.234;7.268;2023-04-01T03:03:37;3.47;;;1.10;;
11078;SDS011;5592;49.234;7.268;2023-04-01T03:06:07;5.07;;;2.57;;
11078;SDS011;5592;49.234;7.268;2023-04-01T03:08:35;5.50;;;1.47;;
11078;SDS011;5592;49.234;7.268;2023-04-01T03:11:01;10.63;;;1.33;;
11078;SDS011;5592;49.234;7.268;2023-04-01T03:13:26;3.70;;;1.10;;
11078;SDS011;5592;49.234;7.268;2023-04-01T03:15:52;12.47;;;2.00;;
11078;SDS011;5592;49.234;7.268;2023-04-01T03:18:18;6.90;;;1.67;;
11078;SDS011;5592;49.234;7.268;2023-04-01T03:20:44;5.57;;;1.60;;
11078;SDS011;5592;49.234;7.268;2023-04-01T03:23:10;3.73;;;1.57;;
11078;SDS011;5592;49.234;7.268;2023-04-01T03:25:35;7.00;;;1.80;;
11078;SDS011;5592;49.234;7.268;2023-04-01T03:28:01;6.37;;;1.43;;
11078;SDS011;5592;49.234;7.268;2023-04-01T03:30:27;7.00;;;1.60;;
11078;SDS011;5592;49.234;7.268;2023-04-01T03:32:55;4.93;;;1.63;;
11078;SDS011;5592;49.234;7.268;2023-04-01T03:35:20;10.07;;;1.67;;
11078;SDS011;5592;49.234;7.268;2023-04-01T03:37:46;7.40;;;2.33;;
11078;SDS011;5592;49.234;7.268;2023-04-01T03:40:11;6.73;;;1.73;;
11078;SDS011;5592;49.234;7.268;2023-04-01T03:42:37;5.23;;;1.50;;
11078;SDS011;5592;49.234;7.268;2023-04-01T03:45:03;7.17;;;1.60;;
11078;SDS011;5592;49.234;7.268;2023-04-01T03:47:29;6.00;;;1.80;;
11078;SDS011;5592;49.234;7.268;2023-04-01T03:49:55;3.03;;;1.20;;
11078;SDS011;5592;49.234;7.268;2023-04-01T03:52:21;7.37;;;1.67;;
11078;SDS011;5592;49.234;7.268;2023-04-01T03:54:46;7.20;;;1.50;;
11078;SDS011;5592;49.234;7.268;2023-04-01T03:57:12;7.10;;;1.50;;
11078;SDS011;5592;49.234;7.268;2023-04-01T03:59:38;4.53;;;1.30;;
11078;SDS011;5592;49.234;7.268;2023-04-01T04:02:03;9.93;;;2.27;;
11078;SDS011;5592;49.234;7.268;2023-04-01T04:04:29;6.93;;;1.30;;
11078;SDS011;5592;49.234;7.268;2023-04-01T04:06:55;6.30;;;1.53;;
11078;SDS011;5592;49.234;7.268;2023-04-01T04:09:21;7.93;;;1.97;;
11078;SDS011;5592;49.234;7.268;2023-04-01T04:11:47;8.63;;;1.53;;
11078;SDS011;5592;49.234;7.268;2023-04-01T04:14:13;10.90;;;2.20;;
11078;SDS011;5592;49.234;7.268;2023-04-01T04:16:39;4.93;;;1.73;;
11078;SDS011;5592;49.234;7.268;2023-04-01T04:19:05;8.80;;;2.10;;
11078;SDS011;5592;49.234;7.268;2023-04-01T04:21:30;7.50;;;1.57;;
11078;SDS011;5592;49.234;7.268;2023-04-01T04:23:56;5.10;;;1.53;;
11078;SDS011;5592;49.234;7.268;2023-04-01T04:26:23;10.50;;;2.00;;
11078;SDS011;5592;49.234;7.268;2023-04-01T04:28:48;6.40;;;1.73;;
11078;SDS011;5592;49.234;7.268;2023-04-01T04:31:18;8.97;;;1.47;;
11078;SDS011;5592;49.234;7.268;2023-04-01T04:33:45;6.40;;;1.63;;
11078;SDS011;5592;49.234;7.268;2023-04-01T04:36:11;5.53;;;1.73;;
11078;SDS011;5592;49.234;7.268;2023-04-01T04:38:36;11.90;;;1.87;;
11078;SDS011;5592;49.234;7.268;2023-04-01T04:41:02;3.93;;;1.60;;
11078;SDS011;5592;49.234;7.268;2023-04-01T04:43:27;6.13;;;1.90;;
11078;SDS011;5592;49.234;7.268;2023-04-01T04:45:53;8.20;;;1.63;;
11078;SDS011;5592;49.234;7.268;2023-04-01T04:48:18;10.97;;;2.00;;
11078;SDS011;5592;49.234;7.268;2023-04-01T04:50:48;5.90;;;1.47;;
11078;SDS011;5592;49.234;7.268;2023-04-01T04:53:16;5.70;;;1.70;;
11078;SDS011;5592;49.234;7.268;2023-04-01T04:55:46;7.33;;;1.80;;
11078;SDS011;5592;49.234;7.268;2023-04-01T04:58:13;6.73;;;1.93;;
11078;SDS011;5592;49.234;7.268;2023-04-01T05:00:39;10.13;;;1.70;;
11078;SDS011;5592;49.234;7.268;2023-04-01T05:03:05;13.60;;;1.67;;
11078;SDS011;5592;49.234;7.268;2023-04-01T05:05:31;3.27;;;1.40;;
11078;SDS011;5592;49.234;7.268;2023-04-01T05:07:56;3.33;;;1.63;;
11078;SDS011;5592;49.234;7.268;2023-04-01T05:10:22;4.80;;;1.97;;
11078;SDS011;5592;49.234;7.268;2023-04-01T05:12:47;4.80;;;1.50;;
11078;SDS011;5592;49.234;7.268;2023-04-01T05:15:13;16.17;;;1.70;;
11078;SDS011;5592;49.234;7.268;2023-04-01T05:17:40;3.10;;;1.90;;
11078;SDS011;5592;49.234;7.268;2023-04-01T05:20:05;3.80;;;1.37;;
11078;SDS011;5592;49.234;7.268;2023-04-01T05:22:31;7.90;;;1.40;;
11078;SDS011;5592;49.234;7.268;2023-04-01T05:24:57;3.80;;;1.50;;
11078;SDS011;5592;49.234;7.268;2023-04-01T05:27:22;5.97;;;1.40;;
11078;SDS011;5592;49.234;7.268;2023-04-01T05:29:48;8.73;;;1.50;;
11078;SDS011;5592;49.234;7.268;2023-04-01T05:32:13;2.83;;;1.30;;
11078;SDS011;5592;49.234;7.268;2023-04-01T05:34:39;6.43;;;1.50;;
11078;SDS011;5592;49.234;7.268;2023-04-01T05:37:05;5.83;;;1.23;;
11078;SDS011;5592;49.234;7.268;2023-04-01T05:39:35;5.53;;;1.50;;
11078;SDS011;5592;49.234;7.268;2023-04-01T05:42:02;9.47;;;2.17;;
11078;SDS011;5592;49.234;7.268;2023-04-01T05:44:28;4.97;;;1.20;;
11078;SDS011;5592;49.234;7.268;2023-04-01T05:46:53;4.67;;;1.60;;
11078;SDS011;5592;49.234;7.268;2023-04-01T05:49:19;7.03;;;1.50;;
11078;SDS011;5592;49.234;7.268;2023-04-01T05:51:44;2.93;;;1.40;;
11078;SDS011;5592;49.234;7.268;2023-04-01T05:54:10;4.90;;;1.73;;
11078;SDS011;5592;49.234;7.268;2023-04-01T05:56:35;4.73;;;1.40;;
11078;SDS011;5592;49.234;7.268;2023-04-01T05:59:01;9.67;;;2.53;;
11078;SDS011;5592;49.234;7.268;2023-04-01T06:01:27;4.00;;;1.27;;
11078;SDS011;5592;49.234;7.268;2023-04-01T06:03:52;3.13;;;1.10;;
11078;SDS011;5592;49.234;7.268;2023-04-01T06:06:25;2.90;;;1.27;;
11078;SDS011;5592;49.234;7.268;2023-04-01T06:08:53;8.10;;;1.27;;
11078;SDS011;5592;49.234;7.268;2023-04-01T06:16:54;2.43;;;1.10;;
11078;SDS011;5592;49.234;7.268;2023-04-01T06:25:18;3.60;;;1.00;;
11078;SDS011;5592;49.234;7.268;2023-04-01T06:46:44;2.10;;;1.00;;
11078;SDS011;5592;49.234;7.268;2023-04-01T06:54:24;3.53;;;0.80;;
11078;SDS011;5592;49.234;7.268;2023-04-01T06:57:05;1.80;;;1.23;;
11078;SDS011;5592;49.234;7.268;2023-04-01T06:59:47;1.97;;;0.90;;
11078;SDS011;5592;49.234;7.268;2023-04-01T07:02:34;1.57;;;0.97;;
11078;SDS011;5592;49.234;7.268;2023-04-01T07:05:08;2.53;;;0.77;;
11078;SDS011;5592;49.234;7.268;2023-04-01T07:07:41;2.03;;;0.90;;
11078;SDS011;5592;49.234;7.268;2023-04-01T07:10:11;2.20;;;1.00;;
11078;SDS011;5592;49.234;7.268;2023-04-01T07:12:53;1.33;;;0.70;;
11078;SDS011;5592;49.234;7.268;2023-04-01T07:15:22;2.73;;;1.00;;
11078;SDS011;5592;49.234;7.268;2023-04-01T07:17:53;2.00;;;0.80;;
11078;SDS011;5592;49.234;7.268;2023-04-01T07:20:28;2.20;;;0.80;;
11078;SDS011;5592;49.234;7.268;2023-04-01T07:22:58;2.23;;;1.03;;
11078;SDS011;5592;49.234;7.268;2023-04-01T07:25:27;2.73;;;0.83;;
11078;SDS011;5592;49.234;7.268;2023-04-01T07:28:05;2.10;;;0.80;;
11078;SDS011;5592;49.234;7.268;2023-04-01T07:30:47;1.43;;;0.80;;
11078;SDS011;5592;49.234;7.268;2023-04-01T07:33:58;1.23;;;0.80;;
11078;SDS011;5592;49.234;7.268;2023-04-01T07:36:33;3.60;;;2.10;;
11078;SDS011;5592;49.234;7.268;2023-04-01T07:50:31;1.70;;;0.87;;
11078;SDS011;5592;49.234;7.268;2023-04-01T07:53:06;3.83;;;0.90;;
11078;SDS011;5592;49.234;7.268;2023-04-01T07:55:50;1.20;;;0.97;;
11078;SDS011;5592;49.234;7.268;2023-04-01T08:01:23;1.47;;;0.80;;
11078;SDS011;5592;49.234;7.268;2023-04-01T08:09:38;1.27;;;0.93;;
11078;SDS011;5592;49.234;7.268;2023-04-01T08:12:17;1.03;;;0.73;;
11078;SDS011;5592;49.234;7.268;2023-04-01T08:18:03;1.57;;;0.83;;
11078;SDS011;5592;49.234;7.268;2023-04-01T08:23:15;1.27;;;0.80;;
11078;SDS011;5592;49.234;7.268;2023-04-01T08:25:46;0.83;;;0.83;;
11078;SDS011;5592;49.234;7.268;2023-04-01T08:28:24;1.10;;;0.70;;
11078;SDS011;5592;49.234;7.268;2023-04-01T08:31:05;0.70;;;0.70;;
11078;SDS011;5592;49.234;7.268;2023-04-01T08:33:39;1.70;;;0.70;;
11078;SDS011;5592;49.234;7.268;2023-04-01T08:36:17;1.03;;;0.77;;
11078;SDS011;5592;49.234;7.268;2023-04-01T08:46:56;1.67;;;0.80;;
11078;SDS011;5592;49.234;7.268;2023-04-01T08:52:19;0.70;;;0.70;;
11078;SDS011;5592;49.234;7.268;2023-04-01T08:55:19;2.73;;;1.27;;
11078;SDS011;5592;49.234;7.268;2023-04-01T08:57:54;3.33;;;1.10;;
11078;SDS011;5592;49.234;7.268;2023-04-01T09:00:43;0.80;;;0.80;;
11078;SDS011;5592;49.234;7.268;2023-04-01T09:06:03;1.33;;;0.80;;
11078;SDS011;5592;49.234;7.268;2023-04-01T09:11:52;0.70;;;0.70;;
11078;SDS011;5592;49.234;7.268;2023-04-01T09:14:26;0.87;;;0.77;;
11078;SDS011;5592;49.234;7.268;2023-04-01T09:23:15;1.23;;;0.90;;
11078;SDS011;5592;49.234;7.268;2023-04-01T09:28:47;0.97;;;0.80;;
11078;SDS011;5592;49.234;7.268;2023-04-01T09:37:01;0.80;;;0.80;;
11078;SDS011;5592;49.234;7.268;2023-04-01T09:40:08;1.40;;;0.80;;
11078;SDS011;5592;49.234;7.268;2023-04-01T09:56:46;0.80;;;0.80;;
11078;SDS011;5592;49.234;7.268;2023-04-01T10:05:51;2.47;;;0.90;;
11078;SDS011;5592;49.234;7.268;2023-04-01T10:11:35;1.17;;;0.80;;
11078;SDS011;5592;49.234;7.268;2023-04-01T10:19:50;0.97;;;0.73;;
11078;SDS011;5592;49.234;7.268;2023-04-01T10:39:06;1.40;;;0.90;;
11078;SDS011;5592;49.234;7.268;2023-04-01T10:55:53;0.60;;;0.60;;
11078;SDS011;5592;49.234;7.268;2023-04-01T11:00:58;0.60;;;0.60;;
11078;SDS011;5592;49.234;7.268;2023-04-01T11:18:07;1.27;;;0.90;;
11078;SDS011;5592;49.234;7.268;2023-04-01T11:21:06;1.40;;;0.73;;
11078;SDS011;5592;49.234;7.268;2023-04-01T11:26:59;1.67;;;0.80;;
11078;SDS011;5592;49.234;7.268;2023-04-01T11:29:24;0.70;;;0.70;;
11078;SDS011;5592;49.234;7.268;2023-04-01T11:32:20;1.00;;;0.90;;
11078;SDS011;5592;49.234;7.268;2023-04-01T11:34:57;3.13;;;0.90;;
11078;SDS011;5592;49.234;7.268;2023-04-01T11:37:50;1.73;;;0.70;;
11078;SDS011;5592;49.234;7.268;2023-04-01T11:54:48;0.60;;;0.50;;
11078;SDS011;5592;49.234;7.268;2023-04-01T11:57:55;1.40;;;0.77;;
11078;SDS011;5592;49.234;7.268;2023-04-01T12:03:34;2.93;;;0.83;;
11078;SDS011;5592;49.234;7.268;2023-04-01T12:06:23;1.53;;;0.70;;
11078;SDS011;5592;49.234;7.268;2023-04-01T12:15:12;0.73;;;0.73;;
11078;SDS011;5592;49.234;7.268;2023-04-01T12:29:06;1.53;;;0.73;;
11078;SDS011;5592;49.234;7.268;2023-04-01T12:31:42;1.07;;;0.87;;
11078;SDS011;5592;49.234;7.268;2023-04-01T12:37:32;1.03;;;0.90;;
11078;SDS011;5592;49.234;7.268;2023-04-01T12:40:24;1.13;;;0.70;;
11078;SDS011;5592;49.234;7.268;2023-04-01T12:54:59;4.70;;;0.80;;
11078;SDS011;5592;49.234;7.268;2023-04-01T13:00:16;1.00;;;0.70;;
11078;SDS011;5592;49.234;7.268;2023-04-01T13:20:06;2.40;;;0.87;;
11078;SDS011;5592;49.234;7.268;2023-04-01T13:27:56;1.07;;;0.60;;
11078;SDS011;5592;49.234;7.268;2023-04-01T13:38:52;1.63;;;0.73;;
11078;SDS011;5592;49.234;7.268;2023-04-01T13:41:30;1.40;;;0.80;;
11078;SDS011;5592;49.234;7.268;2023-04-01T13:44:17;1.50;;;0.93;;
11078;SDS011;5592;49.234;7.268;2023-04-01T13:58:05;5.50;;;0.80;;
11078;SDS011;5592;49.234;7.268;2023-04-01T14:06:44;4.30;;;0.90;;
11078;SDS011;5592;49.234;7.268;2023-04-01T14:09:25;3.33;;;0.97;;
11078;SDS011;5592;49.234;7.268;2023-04-01T14:26:03;1.60;;;1.00;;
11078;SDS011;5592;49.234;7.268;2023-04-01T14:28:45;1.50;;;0.80;;
11078;SDS011;5592;49.234;7.268;2023-04-01T14:43:08;2.40;;;1.03;;
11078;SDS011;5592;49.234;7.268;2023-04-01T14:45:36;2.20;;;0.90;;
11078;SDS011;5592;49.234;7.268;2023-04-01T14:48:21;2.83;;;0.90;;
11078;SDS011;5592;49.234;7.268;2023-04-01T14:51:17;2.50;;;1.00;;
11078;SDS011;5592;49.234;7.268;2023-04-01T14:56:38;1.63;;;0.70;;
11078;SDS011;5592;49.234;7.268;2023-04-01T14:59:09;2.83;;;1.00;;
11078;SDS011;5592;49.234;7.268;2023-04-01T15:07:56;2.47;;;0.80;;
11078;SDS011;5592;49.234;7.268;2023-04-01T15:16:16;1.10;;;0.73;;
11078;SDS011;5592;49.234;7.268;2023-04-01T15:19:01;1.17;;;0.60;;
11078;SDS011;5592;49.234;7.268;2023-04-01T15:21:33;1.27;;;0.80;;
11078;SDS011;5592;49.234;7.268;2023-04-01T15:27:02;1.00;;;0.70;;
11078;SDS011;5592;49.234;7.268;2023-04-01T15:29:56;1.90;;;0.70;;
11078;SDS011;5592;49.234;7.268;2023-04-01T15:32:39;1.40;;;0.80;;
11078;SDS011;5592;49.234;7.268;2023-04-01T15:35:25;1.33;;;0.80;;
11078;SDS011;5592;49.234;7.268;2023-04-01T15:43:38;2.77;;;0.80;;
11078;SDS011;5592;49.234;7.268;2023-04-01T15:48:50;1.20;;;0.80;;
11078;SDS011;5592;49.234;7.268;2023-04-01T15:54:45;1.60;;;0.80;;
11078;SDS011;5592;49.234;7.268;2023-04-01T15:57:40;2.73;;;0.80;;
11078;SDS011;5592;49.234;7.268;2023-04-01T16:00:29;2.40;;;1.10;;
11078;SDS011;5592;49.234;7.268;2023-04-01T16:11:38;1.30;;;0.80;;
11078;SDS011;5592;49.234;7.268;2023-04-01T16:20:13;1.60;;;0.80;;
11078;SDS011;5592;49.234;7.268;2023-04-01T16:23:10;0.90;;;0.80;;
11078;SDS011;5592;49.234;7.268;2023-04-01T16:26:05;2.53;;;0.83;;
11078;SDS011;5592;49.234;7.268;2023-04-01T16:28:40;1.90;;;0.90;;
11078;SDS011;5592;49.234;7.268;2023-04-01T16:36:37;2.83;;;0.90;;
11078;SDS011;5592;49.234;7.268;2023-04-01T16:42:09;1.00;;;0.90;;
11078;SDS011;5592;49.234;7.268;2023-04-01T16:47:38;0.60;;;0.60;;
11078;SDS011;5592;49.234;7.268;2023-04-01T16:50:15;1.60;;;0.83;;
11078;SDS011;5592;49.234;7.268;2023-04-01T16:55:34;5.83;;;0.93;;
11078;SDS011;5592;49.234;7.268;2023-04-01T16:58:54;1.00;;;0.90;;
11078;SDS011;5592;49.234;7.268;2023-04-01T17:01:20;1.33;;;0.80;;
11078;SDS011;5592;49.234;7.268;2023-04-01T17:03:52;1.07;;;0.77;;
11078;SDS011;5592;49.234;7.268;2023-04-01T17:06:30;0.90;;;0.70;;
11078;SDS011;5592;49.234;7.268;2023-04-01T17:09:09;1.50;;;0.90;;
11078;SDS011;5592;49.234;7.268;2023-04-01T17:11:56;1.73;;;0.80;;
11078;SDS011;5592;49.234;7.268;2023-04-01T17:17:34;2.40;;;0.80;;
11078;SDS011;5592;49.234;7.268;2023-04-01T17:20:32;1.03;;;0.77;;
11078;SDS011;5592;49.234;7.268;2023-04-01T17:37:04;1.40;;;1.30;;
11078;SDS011;5592;49.234;7.268;2023-04-01T17:45:03;0.87;;;0.83;;
11078;SDS011;5592;49.234;7.268;2023-04-01T18:01:35;0.97;;;0.80;;
11078;SDS011;5592;49.234;7.268;2023-04-01T18:04:17;1.20;;;0.93;;
11078;SDS011;5592;49.234;7.268;2023-04-01T18:17:55;1.43;;;0.77;;
11078;SDS011;5592;49.234;7.268;2023-04-01T18:29:04;2.90;;;0.90;;
11078;SDS011;5592;49.234;7.268;2023-04-01T18:34:43;1.90;;;0.90;;
11078;SDS011;5592;49.234;7.268;2023-04-01T18:37:39;1.73;;;0.80;;
11078;SDS011;5592;49.234;7.268;2023-04-01T18:46:05;1.47;;;0.87;;
11078;SDS011;5592;49.234;7.268;2023-04-01T18:54:05;1.73;;;1.00;;
11078;SDS011;5592;49.234;7.268;2023-04-01T18:56:42;3.37;;;1.00;;
11078;SDS011;5592;49.234;7.268;2023-04-01T18:59:21;1.40;;;1.10;;
11078;SDS011;5592;49.234;7.268;2023-04-01T19:04:42;2.50;;;0.90;;
11078;SDS011;5592;49.234;7.268;2023-04-01T19:13:26;2.50;;;0.97;;
11078;SDS011;5592;49.234;7.268;2023-04-01T19:16:13;1.60;;;1.00;;
11078;SDS011;5592;49.234;7.268;2023-04-01T19:19:07;1.13;;;1.03;;
11078;SDS011;5592;49.234;7.268;2023-04-01T19:24:43;1.87;;;1.00;;
11078;SDS011;5592;49.234;7.268;2023-04-01T19:30:35;1.00;;;0.90;;
11078;SDS011;5592;49.234;7.268;2023-04-01T19:36:28;1.13;;;0.90;;
11078;SDS011;5592;49.234;7.268;2023-04-01T19:47:35;3.17;;;0.80;;
11078;SDS011;5592;49.234;7.268;2023-04-01T19:53:35;1.23;;;1.13;;
11078;SDS011;5592;49.234;7.268;2023-04-01T19:56:17;1.30;;;0.90;;
11078;SDS011;5592;49.234;7.268;2023-04-01T20:01:49;1.60;;;1.00;;
11078;SDS011;5592;49.234;7.268;2023-04-01T20:04:47;2.40;;;0.90;;
11078;SDS011;5592;49.234;7.268;2023-04-01T20:10:09;1.90;;;1.20;;
11078;SDS011;5592;49.234;7.268;2023-04-01T20:13:01;1.43;;;1.00;;
11078;SDS011;5592;49.234;7.268;2023-04-01T20:15:45;1.13;;;1.03;;
11078;SDS011;5592;49.234;7.268;2023-04-01T20:18:23;2.80;;;0.97;;
11078;SDS011;5592;49.234;7.268;2023-04-01T20:21:01;1.23;;;1.03;;
11078;SDS011;5592;49.234;7.268;2023-04-01T20:26:04;2.80;;;1.00;;
11078;SDS011;5592;49.234;7.268;2023-04-01T20:31:19;1.47;;;1.03;;
11078;SDS011;5592;49.234;7.268;2023-04-01T20:48:27;1.10;;;1.00;;
11078;SDS011;5592;49.234;7.268;2023-04-01T20:51:28;7.73;;;1.40;;
11078;SDS011;5592;49.234;7.268;2023-04-01T20:54:11;2.23;;;1.40;;
11078;SDS011;5592;49.234;7.268;2023-04-01T20:56:57;3.07;;;1.10;;
11078;SDS011;5592;49.234;7.268;2023-04-01T21:02:32;2.03;;;1.20;;
11078;SDS011;5592;49.234;7.268;2023-04-01T21:13:45;1.70;;;1.10;;
11078;SDS011;5592;49.234;7.268;2023-04-01T21:16:41;3.33;;;1.50;;
11078;SDS011;5592;49.234;7.268;2023-04-01T21:21:49;2.70;;;1.10;;
11078;SDS011;5592;49.234;7.268;2023-04-01T21:24:49;5.57;;;1.60;;
11078;SDS011;5592;49.234;7.268;2023-04-01T21:30:32;2.53;;;0.93;;
11078;SDS011;5592;49.234;7.268;2023-04-01T21:38:53;6.07;;;1.40;;
11078;SDS011;5592;49.234;7.268;2023-04-01T21:44:17;1.27;;;1.10;;
11078;SDS011;5592;49.234;7.268;2023-04-01T21:47:08;4.77;;;1.53;;
11078;SDS011;5592;49.234;7.268;2023-04-01T21:49:53;2.17;;;1.20;;
11078;SDS011;5592;49.234;7.268;2023-04-01T22:04:06;1.57;;;1.37;;
11078;SDS011;5592;49.234;7.268;2023-04-01T22:06:50;1.70;;;1.30;;
11078;SDS011;5592;49.234;7.268;2023-04-01T22:12:50;2.30;;;1.20;;
11078;SDS011;5592;49.234;7.268;2023-04-01T22:15:24;1.63;;;1.30;;
11078;SDS011;5592;49.234;7.268;2023-04-01T22:18:07;2.20;;;1.30;;
11078;SDS011;5592;49.234;7.268;2023-04-01T22:20:44;3.63;;;1.40;;
11078;SDS011;5592;49.234;7.268;2023-04-01T22:23:31;3.53;;;1.87;;
11078;SDS011;5592;49.234;7.268;2023-04-01T22:29:06;4.30;;;1.63;;
11078;SDS011;5592;49.234;7.268;2023-04-01T22:31:55;3.37;;;1.57;;
11078;SDS011;5592;49.234;7.268;2023-04-01T22:34:35;5.23;;;1.90;;
11078;SDS011;5592;49.234;7.268;2023-04-01T22:37:19;3.73;;;1.93;;
11078;SDS011;5592;49.234;7.268;2023-04-01T22:40:00;7.30;;;1.97;;
11078;SDS011;5592;49.234;7.268;2023-04-01T22:43:02;1.97;;;1.47;;
11078;SDS011;5592;49.234;7.268;2023-04-01T22:46:06;4.00;;;1.70;;
11078;SDS011;5592;49.234;7.268;2023-04-01T22:49:07;4.03;;;1.63;;
11078;SDS011;5592;49.234;7.268;2023-04-01T22:51:43;5.87;;;2.20;;
11078;SDS011;5592;49.234;7.268;2023-04-01T22:54:19;3.80;;;2.17;;
11078;SDS011;5592;49.234;7.268;2023-04-01T22:56:57;2.60;;;1.70;;
11078;SDS011;5592;49.234;7.268;2023-04-01T22:59:45;3.70;;;1.90;;
11078;SDS011;5592;49.234;7.268;2023-04-01T23:02:30;8.00;;;2.40;;
11078;SDS011;5592;49.234;7.268;2023-04-01T23:05:02;3.50;;;2.10;;
11078;SDS011;5592;49.234;7.268;2023-04-01T23:13:04;4.13;;;1.87;;
11078;SDS011;5592;49.234;7.268;2023-04-01T23:15:37;2.03;;;1.73;;
11078;SDS011;5592;49.234;7.268;2023-04-01T23:20:52;3.57;;;1.40;;
11078;SDS011;5592;49.234;7.268;2023-04-01T23:23:26;2.87;;;1.70;;
11078;SDS011;5592;49.234;7.268;2023-04-01T23:28:54;3.33;;;1.80;;
11078;SDS011;5592;49.234;7.268;2023-04-01T23:31:37;2.30;;;2.10;;
11078;SDS011;5592;49.234;7.268;2023-04-01T23:36:41;2.53;;;1.70;;
11078;SDS011;5592;49.234;7.268;2023-04-01T23:39:18;3.90;;;2.13;;
11078;SDS011;5592;49.234;7.268;2023-04-01T23:41:52;3.37;;;2.20;;
11078;SDS011;5592;49.234;7.268;2023-04-01T23:44:25;3.50;;;2.73;;
11078;SDS011;5592;49.234;7.268;2023-04-01T23:46:53;2.50;;;2.30;;
11078;SDS011;5592;49.234;7.268;2023-04-01T23:49:22;3.10;;;2.40;;
11078;SDS011;5592;49.234;7.268;2023-04-01T23:51:56;2.10;;;1.93;;
11078;SDS011;5592;49.234;7.268;2023-04-01T23:54:38;2.00;;;1.77;;
11078;SDS011;5592;49.234;7.268;2023-04-01T23:57:12;2.90;;;2.07;;
11078;SDS011;5592;49.234;7.268;2023-04-01T23:59:40;9.00;;;2.00;;
